Weather History for Forest City, IA

Change the Weather History Date:

Monday, January 6, 2014

  Actual Average Record
Temperature  
Mean Temperature -12 °F -  
Max Temperature -7 °F 19 °F 42 °F (2012)
Min Temperature -18 °F 3 °F -18 °F (2014)
Degree Days  
Heating Degree Days 78    
Moisture  
Dew Point -23 °F    
Average Humidity 62    
Maximum Humidity 70    
Minimum Humidity 58    
Precipitation  
Precipitation 0.00 in - - ()
Sea Level Pressure  
Sea Level Pressure 30.26 in    
Wind  
Wind Speed 17 mph (WNW)    
Max Wind Speed 22 mph    
Max Gust Speed 30 mph    
Visibility 9 miles    
Events      
Averages and records for this station are not official NWS values.
T = Trace of Precipitation, MM = Missing Value Source: NWS Daily Summary

Daily Weather History Graph

Daily Weather History Graph

Search for Another Location

Airport:

Trip Planner

Search our weather history database for the weather conditions in past years. The results will help you decide how hot, cold, wet, or windy it might be!

Date:

Astronomy

Jan. 06, 2014 Rise Set
Actual Time 7:46 AM CST 4:54 PM CST
Civil Twilight 7:14 AM CST 5:26 PM CST
Nautical Twilight 6:38 AM CST 6:02 PM CST
Astronomical Twilight 6:04 AM CST 6:36 PM CST
Moon 10:51 AM CST (1/6) 11:40 PM CST (1/6)
Length of Visible Light 10h 12m
Length of Day
9h 08m
Waxing Crescent, 35% of the Moon is Illuminated
Jan 6
Waxing Crescent
Jan 7
First Quarter
Jan 15
Full
Jan 23
Last Quarter
Jan 30
New

Hourly Weather History & Observations

Time (CST) Temp. Windchill Dew Point Humidity Pressure Visibility Wind Dir Wind Speed Gust Speed Precip Events Conditions
12:19 AM -16.6 °F -42.9 °F -27.4 °F 58% 30.29 in 10.0 mi NW 18.4 mph 26.5 mph N/A   Mostly Cloudy
12:36 AM -16.6 °F -41.4 °F -27.4 °F 58% 30.29 in 10.0 mi NW 16.1 mph 28.8 mph N/A   Overcast
1:01 AM -16.6 °F -43.5 °F -27.4 °F 58% 30.28 in 5.0 mi NW 19.6 mph 26.5 mph N/A   Overcast
1:16 AM -16.6 °F -42.1 °F -27.4 °F 58% 30.28 in 5.0 mi NW 17.3 mph 25.3 mph N/A   Haze
1:37 AM -16.6 °F -42.1 °F -27.4 °F 58% 30.28 in 7.0 mi NW 17.3 mph 26.5 mph N/A   Overcast
1:56 AM -16.6 °F -42.9 °F -27.4 °F 58% 30.28 in 10.0 mi NW 18.4 mph 29.9 mph N/A   Mostly Cloudy
2:22 AM -18.4 °F -42.9 °F -27.4 °F 63% 30.29 in 10.0 mi NW 15.0 mph 20.7 mph N/A   Clear
2:37 AM -18.4 °F -45.9 °F -27.4 °F 63% 30.29 in 10.0 mi NW 19.6 mph 26.5 mph N/A   Scattered Clouds
2:57 AM -18.4 °F -44.5 °F -27.4 °F 63% 30.29 in 7.0 mi NW 17.3 mph 23.0 mph N/A   Mostly Cloudy
3:15 AM -16.6 °F -41.4 °F -25.6 °F 64% 30.29 in 4.0 mi NW 16.1 mph 25.3 mph N/A   Haze
3:35 AM -16.6 °F -42.1 °F -27.4 °F 58% 30.29 in 10.0 mi NW 17.3 mph 26.5 mph N/A   Scattered Clouds
3:55 AM -16.6 °F -43.5 °F -27.4 °F 58% 30.29 in 10.0 mi NW 19.6 mph 25.3 mph N/A   Clear
4:15 AM -18.4 °F -42.9 °F -27.4 °F 63% 30.29 in 10.0 mi NW 15.0 mph 24.2 mph N/A   Clear
4:35 AM -18.4 °F -43.7 °F -27.4 °F 63% 30.29 in 10.0 mi NW 16.1 mph 21.9 mph N/A   Clear
4:55 AM -18.4 °F -45.2 °F -27.4 °F 63% 30.29 in 10.0 mi WNW 18.4 mph 27.6 mph N/A   Clear
5:15 AM -18.4 °F -45.2 °F -27.4 °F 63% 30.28 in 10.0 mi NW 18.4 mph 21.9 mph N/A   Clear
5:35 AM -18.4 °F -45.9 °F -29.2 °F 58% 30.29 in 10.0 mi NW 19.6 mph 26.5 mph N/A   Clear
5:55 AM -18.4 °F -44.5 °F -29.2 °F 58% 30.29 in 10.0 mi NW 17.3 mph 25.3 mph N/A   Clear
6:15 AM -18.4 °F -42.9 °F -29.2 °F 58% 30.28 in 10.0 mi NW 15.0 mph 25.3 mph N/A   Clear
6:35 AM -18.4 °F -42.9 °F -29.2 °F 58% 30.28 in 10.0 mi WNW 15.0 mph 23.0 mph N/A   Clear
6:55 AM -18.4 °F -44.5 °F -29.2 °F 58% 30.28 in 10.0 mi WNW 17.3 mph 24.2 mph N/A   Clear
7:15 AM -18.4 °F -43.7 °F -27.4 °F 63% 30.29 in 10.0 mi WNW 16.1 mph 21.9 mph N/A   Clear
7:35 AM -18.4 °F -43.7 °F -27.4 °F 63% 30.29 in 10.0 mi WNW 16.1 mph 23.0 mph N/A   Clear
7:55 AM -18.4 °F -42.9 °F -27.4 °F 63% 30.28 in 10.0 mi WNW 15.0 mph 20.7 mph N/A   Clear
8:15 AM -18.4 °F -42.9 °F -27.4 °F 63% 30.29 in 10.0 mi WNW 15.0 mph 20.7 mph N/A   Clear
8:35 AM -18.4 °F -45.2 °F -27.4 °F 63% 30.29 in 10.0 mi WNW 18.4 mph 23.0 mph N/A   Clear
8:55 AM -16.6 °F -42.9 °F -27.4 °F 58% 30.29 in 10.0 mi NW 18.4 mph 24.2 mph N/A   Clear
9:15 AM -16.6 °F -44.1 °F -27.4 °F 58% 30.30 in 10.0 mi WNW 20.7 mph 29.9 mph N/A   Clear
9:35 AM -16.6 °F -43.5 °F -27.4 °F 58% 30.30 in 10.0 mi WNW 19.6 mph 26.5 mph N/A   Clear
9:55 AM -16.6 °F -42.9 °F -27.4 °F 58% 30.30 in 10.0 mi NW 18.4 mph 21.9 mph N/A   Clear
10:15 AM -14.8 °F -41.2 °F -25.6 °F 58% 30.31 in 10.0 mi WNW 19.6 mph 26.5 mph N/A   Clear
10:35 AM -14.8 °F -41.8 °F -25.6 °F 58% 30.30 in 10.0 mi WNW 20.7 mph 27.6 mph N/A   Clear
10:55 AM -13.0 °F -38.8 °F -23.8 °F 59% 30.30 in 10.0 mi NW 19.6 mph 26.5 mph N/A   Clear
11:15 AM -13.0 °F -38.2 °F -23.8 °F 59% 30.29 in 10.0 mi WNW 18.4 mph 25.3 mph N/A   Scattered Clouds
11:35 AM -13.0 °F -40.0 °F -23.8 °F 59% 30.29 in 7.0 mi WNW 21.9 mph 27.6 mph N/A   Mostly Cloudy
11:55 AM -13.0 °F -38.8 °F -22.0 °F 64% 30.27 in 4.0 mi WNW 19.6 mph 25.3 mph N/A   Haze
12:15 PM -11.2 °F -36.4 °F -22.0 °F 59% 30.27 in 4.0 mi WNW 19.6 mph 24.2 mph N/A   Haze
12:35 PM -11.2 °F -36.4 °F -22.0 °F 59% 30.26 in 5.0 mi WNW 19.6 mph 24.2 mph N/A   Haze
12:55 PM -11.2 °F -36.4 °F -22.0 °F 59% 30.25 in 7.0 mi WNW 19.6 mph 24.2 mph N/A   Mostly Cloudy
1:15 PM -9.4 °F -35.2 °F -20.2 °F 59% 30.25 in 5.0 mi West 21.9 mph 25.3 mph N/A   Haze
1:35 PM -9.4 °F -32.1 °F -18.4 °F 65% 30.24 in 3.0 mi WNW 16.1 mph 25.3 mph N/A   Haze
1:55 PM -9.4 °F -32.8 °F -20.2 °F 59% 30.24 in 3.0 mi West 17.3 mph - N/A   Haze
2:15 PM -9.4 °F -34.1 °F -18.4 °F 65% 30.24 in 5.0 mi WNW 19.6 mph 23.0 mph N/A   Haze
2:35 PM -9.4 °F -32.1 °F -18.4 °F 65% 30.25 in 7.0 mi WNW 16.1 mph 24.2 mph N/A   Overcast
2:55 PM -7.6 °F -29.8 °F -18.4 °F 59% 30.25 in 5.0 mi WNW 16.1 mph 23.0 mph N/A   Haze
3:15 PM -7.6 °F -31.7 °F -18.4 °F 59% 30.25 in 7.0 mi WNW 19.6 mph 25.3 mph N/A   Mostly Cloudy
3:35 PM -7.6 °F -31.7 °F -18.4 °F 59% 30.25 in 10.0 mi WNW 19.6 mph 25.3 mph N/A   Mostly Cloudy
3:55 PM -7.6 °F -31.7 °F -18.4 °F 59% 30.25 in 10.0 mi West 19.6 mph 25.3 mph N/A   Scattered Clouds
4:15 PM -7.6 °F -31.1 °F -18.4 °F 59% 30.25 in 10.0 mi WNW 18.4 mph 26.5 mph N/A   Clear
4:35 PM -7.6 °F -31.1 °F -18.4 °F 59% 30.24 in 10.0 mi WNW 18.4 mph 26.5 mph N/A   Clear
4:55 PM -9.4 °F -31.4 °F -18.4 °F 65% 30.25 in 10.0 mi WNW 15.0 mph 20.7 mph N/A   Clear
5:15 PM -9.4 °F -31.4 °F -18.4 °F 65% 30.24 in 10.0 mi WNW 15.0 mph - N/A   Clear
5:35 PM -9.4 °F -30.6 °F -18.4 °F 65% 30.24 in 10.0 mi West 13.8 mph - N/A   Clear
5:55 PM -9.4 °F -31.4 °F -18.4 °F 65% 30.24 in 10.0 mi West 15.0 mph - N/A   Clear
6:15 PM -9.4 °F -31.4 °F -18.4 °F 65% 30.25 in 10.0 mi West 15.0 mph 20.7 mph N/A   Clear
6:35 PM -9.4 °F -31.4 °F -18.4 °F 65% 30.24 in 10.0 mi West 15.0 mph - N/A   Clear
6:55 PM -9.4 °F -27.9 °F -18.4 °F 65% 30.24 in 10.0 mi West 10.4 mph - N/A   Clear
7:15 PM -9.4 °F -26.8 °F -18.4 °F 65% 30.24 in 10.0 mi West 9.2 mph - N/A   Clear
7:35 PM -9.4 °F -28.9 °F -18.4 °F 65% 30.24 in 10.0 mi West 11.5 mph 18.4 mph N/A   Clear
7:55 PM -9.4 °F -25.6 °F -18.4 °F 65% 30.24 in 10.0 mi West 8.1 mph - N/A   Clear
8:15 PM -11.2 °F -27.8 °F -18.4 °F 70% 30.23 in 10.0 mi West 8.1 mph - N/A   Clear
8:35 PM -11.2 °F -27.8 °F -18.4 °F 70% 30.23 in 10.0 mi West 8.1 mph - N/A   Clear
8:55 PM -11.2 °F -27.8 °F -18.4 °F 70% 30.22 in 10.0 mi West 8.1 mph - N/A   Clear
9:15 PM -11.2 °F -27.8 °F -18.4 °F 70% 30.22 in 10.0 mi West 8.1 mph - N/A   Clear
9:35 PM -9.4 °F -27.9 °F -18.4 °F 65% 30.22 in 10.0 mi West 10.4 mph - N/A   Clear
9:55 PM -9.4 °F -27.9 °F -18.4 °F 65% 30.21 in 10.0 mi West 10.4 mph - N/A   Clear
10:15 PM -9.4 °F -25.6 °F -18.4 °F 65% 30.21 in 10.0 mi West 8.1 mph - N/A   Clear
10:35 PM -11.2 °F -27.8 °F -18.4 °F 70% 30.21 in 10.0 mi West 8.1 mph - N/A   Clear
10:55 PM -11.2 °F -27.8 °F -18.4 °F 70% 30.21 in 10.0 mi West 8.1 mph - N/A   Clear
11:15 PM -11.2 °F -26.4 °F -18.4 °F 70% 30.20 in 10.0 mi West 6.9 mph - N/A   Clear
11:35 PM -9.4 °F -20.9 °F -18.4 °F 65% 30.19 in 10.0 mi West 4.6 mph - N/A   Clear
11:55 PM -9.4 °F -20.9 °F -18.4 °F 65% 30.17 in 10.0 mi WNW 4.6 mph - N/A   Clear